Monsenhor Paulo, Brazil
Current Conditions -  °F | °C
As of 6:00 PM on Saturday 20 Dec 2014 (Local Time) from SBGW Reporting Station
Clear Clear  
Wind Chill: 86°   Ceiling: Unl
Heat Index: 87°   Visibility: 6mi
Dew Point: 64°   Wind: 5mph
Humidity: 48%   Direction: 60°ENE
Pressure: 29.83"   Gusts: NA
Location:  21.76°S, 45.54°W
Report Text: SBGW 202000Z 06004KT CAVOK 30/18 Q1010
Loading
Personal Weather Stations






























Interactive Weather Map New forecast layout! Learn more

10-Day Weather Forecast

Advertisements
Track Severe Weather on mobile